Time;durP1;ratioP1;P1;durP2;ratioP2;P2;SDS_P1;SDS_P2;PMS_P1;PMS_P2;Temp;Humidity;BMP_temperature;BMP_pressure;BME280_temperature;BME280_humidity;BME280_pressure;Samples;Min_cycle;Max_cycle;Signal;HPM_P1;HPM_P2
2022/01/13 00:01:27;;;;;;;28.48;16.38;;;-0.60;99.90;;;-1.58;100.00;99412.88;5013524;28;20056;-45
2022/01/13 00:03:53;;;;;;;31.50;16.25;;;-0.50;99.90;;;-1.48;100.00;99430.56;5011724;28;20041;-45
2022/01/13 00:06:19;;;;;;;29.67;16.50;;;-0.50;99.90;;;-1.64;100.00;99392.78;5015708;28;20762;-45
2022/01/13 00:08:45;;;;;;;29.25;17.83;;;-0.50;99.90;;;-1.53;100.00;99413.97;5007853;28;20573;-42
2022/01/13 00:11:10;;;;;;;28.35;16.98;;;-0.50;99.90;;;-1.55;100.00;99410.41;5012475;28;20029;-39
2022/01/13 00:13:50;;;;;;;29.80;17.67;;;-0.60;99.90;;;-1.52;100.00;99409.69;5013744;28;20402;-40
2022/01/13 00:18:50;;;;;;;30.92;18.35;;;-0.50;99.90;;;-1.53;100.00;99411.38;5012255;28;20103;-39
2022/01/13 00:21:40;;;;;;;27.15;17.17;;;-0.50;99.90;;;-1.60;100.00;99410.25;5015135;28;20029;-42
2022/01/13 00:24:05;;;;;;;29.58;16.83;;;-0.50;99.90;;;-1.55;100.00;99418.19;5015876;28;20132;-41
2022/01/13 00:26:33;;;;;;;27.92;16.75;;;-0.60;99.90;;;-1.54;100.00;99425.16;5014993;28;20033;-43
2022/01/13 00:29:02;;;;;;;30.25;17.55;;;-0.60;99.90;;;-1.81;100.00;99393.75;5011462;28;20065;-41
2022/01/13 00:31:32;;;;;;;31.50;17.23;;;-0.60;99.90;;;-1.62;100.00;99440.31;5011592;28;20567;-44
2022/01/13 00:34:02;;;;;;;33.30;18.30;;;-0.60;99.90;;;-1.68;100.00;99434.00;5009864;28;20034;-44
2022/01/13 00:36:37;;;;;;;31.00;17.27;;;-0.60;99.90;;;-1.58;100.00;99428.41;5016202;28;20458;-47
2022/01/13 00:39:06;;;;;;;25.30;15.55;;;-0.60;99.90;;;-1.55;100.00;99433.72;5012579;28;20041;-41
2022/01/13 00:41:32;;;;;;;24.55;14.43;;;-0.60;99.90;;;-1.68;100.00;99421.06;5011641;28;20549;-41
2022/01/13 00:44:02;;;;;;;24.17;14.48;;;-0.50;99.90;;;-1.52;100.00;99448.50;5014805;28;20030;-40
2022/01/13 00:46:39;;;;;;;23.08;14.30;;;-0.50;99.90;;;-1.55;100.00;99450.13;5013153;28;20030;-40
2022/01/13 00:49:05;;;;;;;20.40;12.80;;;-0.50;99.90;;;-1.57;100.00;99451.75;5015062;28;20034;-43
2022/01/13 00:51:31;;;;;;;21.77;13.60;;;-0.60;99.90;;;-1.54;100.00;99462.25;5013500;28;20436;-39
2022/01/13 00:54:03;;;;;;;22.98;14.38;;;-0.60;99.90;;;-1.51;100.00;99456.31;5012662;28;20082;-39
2022/01/13 00:56:29;;;;;;;23.55;15.45;;;-0.50;99.90;;;-1.47;100.00;99463.41;5013529;28;20084;-42
2022/01/13 00:58:54;;;;;;;24.50;15.68;;;-0.50;99.90;;;-1.45;100.00;99460.91;5013813;28;20030;-41
2022/01/13 01:01:20;;;;;;;26.20;16.45;;;-0.50;99.90;;;-1.41;100.00;99448.13;5014059;28;20109;-41
2022/01/13 01:03:46;;;;;;;28.27;17.02;;;-0.50;99.90;;;-1.37;100.00;99455.22;5011236;28;20483;-41
2022/01/13 01:06:11;;;;;;;29.08;17.73;;;-0.40;99.90;;;-1.33;100.00;99457.94;5013604;28;20449;-46
2022/01/13 01:08:38;;;;;;;27.45;16.95;;;-0.40;99.90;;;-1.32;100.00;99458.00;5013402;28;20107;-42
2022/01/13 01:11:05;;;;;;;30.15;18.63;;;-0.40;99.90;;;-1.24;100.00;99466.09;5015446;28;20478;-45
2022/01/13 01:13:34;;;;;;;30.88;17.33;;;-0.30;99.90;;;-1.29;100.00;99471.09;5008259;28;20040;-40
2022/01/13 01:16:05;;;;;;;28.35;16.35;;;-0.30;99.90;;;-1.30;100.00;99473.63;5009231;28;20531;-44
2022/01/13 01:26:49;;;;;;;25.05;15.07;;;-0.40;99.90;;;-1.42;100.00;99461.91;5013442;28;20029;-39
2022/01/13 01:29:36;;;;;;;26.10;15.50;;;-0.40;99.90;;;-1.38;100.00;99479.34;5013500;28;20188;-44
2022/01/13 01:32:05;;;;;;;28.08;15.57;;;-0.40;99.90;;;-1.37;100.00;99475.91;5013951;28;20586;-41
2022/01/13 01:37:13;;;;;;;24.20;14.95;;;-0.40;99.90;;;-1.41;100.00;99461.09;5013869;28;20037;-47
2022/01/13 01:39:40;;;;;;;29.77;16.65;;;-0.40;99.90;;;-1.35;100.00;99453.59;5012035;28;20064;-40
2022/01/13 01:42:06;;;;;;;28.20;17.88;;;-0.40;99.90;;;-1.39;100.00;99462.03;5011287;28;20041;-46
2022/01/13 01:44:36;;;;;;;30.27;18.23;;;-0.30;99.90;;;-1.30;100.00;99474.50;5013059;28;20030;-49
2022/01/13 01:47:03;;;;;;;33.05;18.15;;;-0.30;99.90;;;-1.37;100.00;99482.81;5011952;28;20041;-45
2022/01/13 01:49:32;;;;;;;30.63;18.17;;;-0.40;99.90;;;-1.32;100.00;99470.09;5012820;28;20404;-45
2022/01/13 01:52:00;;;;;;;30.20;17.52;;;-0.40;99.90;;;-1.29;100.00;99473.69;5013839;28;20029;-44
2022/01/13 01:54:27;;;;;;;28.58;17.15;;;-0.40;99.90;;;-1.28;100.00;99469.38;5013120;28;20041;-46
2022/01/13 01:56:54;;;;;;;27.80;16.60;;;-0.40;99.90;;;-1.22;100.00;99470.53;5012916;28;20081;-42
2022/01/13 01:59:25;;;;;;;28.83;17.42;;;-0.30;99.90;;;-1.19;100.00;99464.59;5011718;28;20562;-42
2022/01/13 02:01:51;;;;;;;29.63;17.35;;;-0.30;99.90;;;-1.14;100.00;99468.28;5010794;28;20439;-40
2022/01/13 02:04:18;;;;;;;30.17;16.95;;;-0.20;99.90;;;-1.23;100.00;99457.53;5012374;28;20022;-39
2022/01/13 02:06:44;;;;;;;28.05;16.70;;;-0.20;99.90;;;-1.12;100.00;99466.63;5013772;28;20403;-40
2022/01/13 02:09:14;;;;;;;30.27;16.77;;;-0.20;99.90;;;-1.28;100.00;99430.56;5010626;28;20026;-39
2022/01/13 02:11:44;;;;;;;30.88;16.77;;;-0.20;99.90;;;-1.06;100.00;99466.00;5010856;28;20389;-43
2022/01/13 02:14:32;;;;;;;26.65;16.65;;;-0.10;99.90;;;-1.05;100.00;99458.31;5012273;28;20041;-43
2022/01/13 02:17:04;;;;;;;30.88;17.63;;;-0.10;99.90;;;-1.01;100.00;99470.56;5010680;28;20038;-43
2022/01/13 02:19:31;;;;;;;;;;;-0.10;99.90;;;-1.05;100.00;99455.72;5011179;28;20048;-44
2022/01/13 02:21:57;;;;;;;28.23;15.65;;;-0.10;99.90;;;-1.03;100.00;99448.88;5012343;28;19913;-42
2022/01/13 02:24:23;;;;;;;27.08;15.98;;;-0.10;99.90;;;-1.07;100.00;99443.53;5008962;28;20034;-40
2022/01/13 02:26:49;;;;;;;25.15;15.55;;;-0.10;99.90;;;-1.07;100.00;99440.94;5010946;28;20034;-42
2022/01/13 02:29:15;;;;;;;29.00;17.23;;;-0.10;99.90;;;-1.05;100.00;99436.72;5009916;28;20092;-39
2022/01/13 02:31:41;;;;;;;33.03;18.83;;;-0.10;99.90;;;-1.05;100.00;99436.72;5009753;28;20624;-41
2022/01/13 02:34:07;;;;;;;33.15;18.42;;;-0.20;99.90;;;-1.03;100.00;99437.66;5014832;28;20029;-41
2022/01/13 02:36:33;;;;;;;32.85;18.77;;;-0.10;99.90;;;-1.06;100.00;99433.25;5013164;28;20029;-45
2022/01/13 02:39:00;;;;;;;32.50;18.70;;;-0.10;99.90;;;-1.04;100.00;99435.88;5013711;28;20574;-43
2022/01/13 02:41:26;;;;;;;31.70;19.23;;;-0.10;99.90;;;-1.00;100.00;99423.13;5015412;28;20038;-43
2022/01/13 02:43:54;;;;;;;31.75;17.48;;;-0.10;99.90;;;-1.00;100.00;99425.72;5017146;28;20030;-44
2022/01/13 02:49:12;;;;;;;29.13;16.88;;;0.00;99.90;;;-0.99;100.00;99430.09;5013301;28;20633;-47
2022/01/13 02:51:41;;;;;;;27.08;16.58;;;0.00;99.90;;;-0.98;100.00;99431.84;5012678;28;20030;-40
2022/01/13 02:54:08;;;;;;;26.88;16.60;;;-0.10;99.90;;;-0.96;100.00;99426.72;5008237;28;20514;-45
2022/01/13 02:56:35;;;;;;;30.58;17.52;;;-0.10;99.90;;;-0.98;100.00;99424.06;5012576;28;20041;-41
2022/01/13 02:59:02;;;;;;;27.15;16.92;;;0.00;99.90;;;-0.96;100.00;99425.00;5011869;28;20075;-40
2022/01/13 03:01:28;;;;;;;28.20;16.58;;;0.00;99.90;;;-0.96;100.00;99419.81;5013388;28;20102;-41
2022/01/13 03:03:54;;;;;;;25.60;16.70;;;-0.10;99.90;;;-0.92;100.00;99414.78;5015141;28;20029;-42
2022/01/13 03:06:32;;;;;;;29.80;17.30;;;0.00;99.90;;;-0.89;100.00;99417.50;5014079;28;20033;-46
2022/01/13 03:08:58;;;;;;;32.55;17.33;;;0.00;99.90;;;-0.86;100.00;99413.34;5008884;28;20049;-42
2022/01/13 03:11:31;;;;;;;28.63;16.75;;;0.00;99.90;;;-0.89;100.00;99409.72;5012765;28;20088;-44
2022/01/13 03:13:57;;;;;;;30.23;17.70;;;0.10;99.90;;;-0.92;100.00;99407.88;5014148;28;20395;-42
2022/01/13 03:16:22;;;;;;;30.65;18.45;;;0.10;99.90;;;-0.87;100.00;99418.44;5011666;28;20037;-46
2022/01/13 03:18:48;;;;;;;34.38;18.50;;;0.10;99.90;;;-0.98;100.00;99399.88;5015712;28;20084;-40
2022/01/13 03:21:14;;;;;;;30.08;18.05;;;0.00;99.90;;;-0.91;100.00;99422.63;5014986;28;20114;-43
2022/01/13 03:23:40;;;;;;;29.00;17.80;;;0.00;99.90;;;-0.94;100.00;99426.78;5014198;28;20469;-39
2022/01/13 03:26:06;;;;;;;28.15;18.00;;;0.00;99.90;;;-1.02;100.00;99421.31;5012026;28;20691;-40
2022/01/13 03:28:39;;;;;;;30.65;18.63;;;-0.10;99.90;;;-1.07;100.00;99410.72;5013750;28;20034;-40
2022/01/13 03:31:06;;;;;;;30.95;18.73;;;-0.20;99.90;;;-1.14;100.00;99407.84;5013617;28;20033;-40
2022/01/13 03:33:33;;;;;;;33.30;19.08;;;-0.20;99.90;;;-1.22;100.00;99394.53;5009838;28;20116;-44
2022/01/13 03:36:00;;;;;;;28.42;18.95;;;-0.30;99.90;;;-1.33;100.00;99399.28;5007513;28;20033;-46
2022/01/13 03:38:27;;;;;;;32.90;18.98;;;-0.40;99.90;;;-1.42;100.00;99393.72;5013086;28;20022;-46
2022/01/13 03:40:52;;;;;;;31.08;18.60;;;-0.50;99.90;;;-1.48;100.00;99396.06;5011193;28;20057;-45
2022/01/13 03:43:18;;;;;;;32.65;18.95;;;-0.60;99.90;;;-1.61;100.00;99397.22;5013801;28;20041;-42
2022/01/13 03:45:45;;;;;;;29.98;17.70;;;-0.70;99.90;;;-1.74;100.00;99391.50;5010578;28;20072;-46
2022/01/13 03:48:13;;;;;;;29.83;17.52;;;-0.80;99.90;;;-1.79;100.00;99394.72;5014361;28;20191;-45
2022/01/13 03:50:41;;;;;;;28.65;17.67;;;-0.80;99.90;;;-1.88;100.00;99389.13;5014563;28;20030;-44
2022/01/13 03:53:38;;;;;;;28.98;16.75;;;-0.90;99.90;;;-1.86;100.00;99392.69;5010960;28;20053;-44
2022/01/13 03:56:41;;;;;;;27.15;16.25;;;-0.90;99.90;;;-1.86;100.00;99397.84;5013176;28;20156;-45
2022/01/13 03:59:33;;;;;;;30.20;17.05;;;-0.90;99.90;;;-1.81;100.00;99386.91;5010846;28;20415;-45
2022/01/13 04:02:10;;;;;;;29.40;17.70;;;-0.90;99.90;;;-1.79;100.00;99389.56;5009381;28;20419;-42
2022/01/13 04:04:46;;;;;;;31.77;18.50;;;-0.80;99.90;;;-1.80;100.00;99400.69;5013944;28;20037;-44
2022/01/13 04:07:21;;;;;;;32.35;16.92;;;-0.80;99.90;;;-1.84;100.00;99389.34;5012265;28;20304;-40
2022/01/13 04:09:47;;;;;;;28.75;16.48;;;-0.80;99.90;;;-1.71;100.00;99395.94;5006801;28;20332;-47
2022/01/13 04:12:15;;;;;;;29.60;17.10;;;-0.70;99.90;;;-1.66;100.00;99401.31;5013060;28;20507;-41
2022/01/13 04:17:21;;;;;;;28.42;17.35;;;-0.70;99.90;;;-1.61;100.00;99402.41;5009349;28;20420;-42
2022/01/13 04:19:47;;;;;;;28.70;16.92;;;-0.60;99.90;;;-1.61;100.00;99390.34;5010349;28;20044;-44
2022/01/13 04:22:15;;;;;;;27.30;16.88;;;-0.60;99.90;;;-1.56;100.00;99393.16;5011263;28;20639;-40
2022/01/13 04:24:50;;;;;;;27.20;17.17;;;-0.60;99.90;;;-1.52;100.00;99397.63;5043443;22;20054;-45
2022/01/13 04:27:27;;;;;;;29.42;17.27;;;-0.60;99.90;;;-1.46;100.00;99392.69;5014807;28;20033;-46
2022/01/13 04:32:37;;;;;;;26.50;15.82;;;-0.50;99.90;;;-1.39;100.00;99396.44;5029101;28;20042;-43
2022/01/13 04:35:04;;;;;;;27.58;15.85;;;-0.50;99.90;;;-1.36;100.00;99405.22;5007435;28;20065;-45
2022/01/13 04:37:29;;;;;;;28.65;17.50;;;-0.40;99.90;;;-1.33;100.00;99399.28;5010473;28;20496;-43
2022/01/13 04:39:55;;;;;;;28.23;16.65;;;-0.40;99.90;;;-1.25;100.00;99399.63;5009378;28;20112;-45
2022/01/13 04:42:21;;;;;;;28.15;16.92;;;-0.40;99.90;;;-1.21;100.00;99402.38;5010762;28;20535;-45
2022/01/13 04:44:46;;;;;;;25.75;16.88;;;-0.30;99.90;;;-1.14;100.00;99398.34;5004106;28;20026;-44
2022/01/13 04:47:12;;;;;;;28.98;16.40;;;-0.30;99.90;;;-1.09;100.00;99409.78;5000063;28;20040;-44
2022/01/13 04:49:38;;;;;;;27.95;16.35;;;-0.20;99.90;;;-1.06;100.00;99409.03;5000849;28;20069;-46
2022/01/13 04:52:03;;;;;;;28.80;16.48;;;-0.10;99.90;;;-0.95;100.00;99418.16;5008025;28;20041;-42
2022/01/13 04:54:29;;;;;;;24.60;15.77;;;-0.10;99.90;;;-0.90;100.00;99413.13;4998544;28;20072;-45
2022/01/13 04:57:07;;;;;;;27.45;16.75;;;0.00;99.90;;;-0.85;100.00;99419.38;4997834;28;20487;-45
2022/01/13 04:59:33;;;;;;;22.80;15.60;;;0.00;99.90;;;-0.91;100.00;99408.78;5001473;28;20045;-45
2022/01/13 05:02:00;;;;;;;26.65;16.52;;;0.10;99.90;;;-0.93;100.00;99421.69;4995653;28;20294;-45
2022/01/13 05:04:26;;;;;;;27.48;16.80;;;0.00;99.90;;;-0.91;100.00;99424.34;5003549;28;20632;-45
2022/01/13 05:06:52;;;;;;;31.02;17.10;;;0.00;99.90;;;-0.91;100.00;99429.50;5006555;28;20022;-47
2022/01/13 05:09:18;;;;;;;30.25;17.63;;;0.00;99.90;;;-0.91;100.00;99426.94;5003216;28;20041;-46
2022/01/13 05:11:43;;;;;;;30.02;17.27;;;0.00;99.90;;;-0.92;100.00;99431.19;5003524;28;20057;-45
2022/01/13 05:14:09;;;;;;;27.98;17.13;;;0.00;99.90;;;-0.91;100.00;99432.09;5003513;28;20057;-45
2022/01/13 05:16:51;;;;;;;30.17;16.52;;;0.00;99.90;;;-0.93;100.00;99434.63;5000841;28;20093;-42
2022/01/13 05:19:22;;;;;;;27.92;16.90;;;0.00;99.90;;;-0.93;100.00;99425.94;5002078;28;20099;-43
2022/01/13 05:24:23;;;;;;;25.95;14.95;;;0.00;99.90;;;-0.96;100.00;99427.59;5008112;28;20026;-45
2022/01/13 05:26:49;;;;;;;24.30;15.85;;;0.00;99.90;;;-0.93;100.00;99432.03;5003378;28;20026;-45
2022/01/13 05:29:19;;;;;;;28.98;16.67;;;-0.10;99.90;;;-0.94;100.00;99439.75;5013092;28;20043;-44
2022/01/13 05:31:45;;;;;;;27.10;16.20;;;0.00;99.90;;;-0.98;100.00;99437.00;5010784;28;20483;-46
2022/01/13 05:34:10;;;;;;;26.70;15.52;;;0.00;99.90;;;-1.06;100.00;99437.50;5011027;28;20029;-44
2022/01/13 05:36:36;;;;;;;23.88;15.38;;;-0.10;99.90;;;-1.09;100.00;99422.75;4991919;28;20638;-46
2022/01/13 05:39:02;;;;;;;28.80;16.65;;;-0.10;99.90;;;-1.11;100.00;99436.44;5009453;28;20033;-43
2022/01/13 05:41:29;;;;;;;25.75;16.65;;;-0.20;99.90;;;-1.10;100.00;99439.09;5008512;28;20034;-45
2022/01/13 05:43:55;;;;;;;31.38;17.27;;;-0.20;99.90;;;-1.14;100.00;99444.97;5004525;28;20039;-46
2022/01/13 05:46:20;;;;;;;24.75;16.08;;;-0.20;99.90;;;-1.11;100.00;99439.03;5004644;28;20029;-45
2022/01/13 05:48:46;;;;;;;27.17;16.15;;;-0.20;99.90;;;-1.10;100.00;99433.03;5003726;28;20079;-47
2022/01/13 05:51:12;;;;;;;27.13;16.10;;;-0.20;99.90;;;-1.07;100.00;99439.22;5008511;28;20033;-44
2022/01/13 05:53:37;;;;;;;27.65;16.60;;;-0.20;99.90;;;-1.05;100.00;99441.88;5000144;28;20096;-45
2022/01/13 05:56:03;;;;;;;28.27;16.85;;;-0.10;99.90;;;-1.03;100.00;99435.06;5004364;28;20680;-46
2022/01/13 05:58:29;;;;;;;26.58;16.55;;;-0.10;99.90;;;-1.04;100.00;99444.53;5010438;28;20080;-45
2022/01/13 06:00:55;;;;;;;27.60;16.42;;;-0.10;99.90;;;-1.10;100.00;99443.41;4995635;28;20143;-48
2022/01/13 06:03:20;;;;;;;26.80;16.92;;;-0.10;99.90;;;-1.05;100.00;99447.94;5006256;28;20041;-42
2022/01/13 06:05:46;;;;;;;30.88;16.92;;;-0.10;99.90;;;-1.00;100.00;99443.84;5010255;28;20075;-45
2022/01/13 06:08:12;;;;;;;29.38;17.52;;;-0.10;99.90;;;-0.98;100.00;99439.59;5005443;28;20021;-45
2022/01/13 06:10:42;;;;;;;30.88;16.67;;;-0.10;99.90;;;-0.97;100.00;99449.16;5005774;28;20041;-43
2022/01/13 06:13:08;;;;;;;27.23;16.05;;;0.00;99.90;;;-0.96;100.00;99445.72;4999704;28;20088;-45
2022/01/13 06:15:37;;;;;;;27.13;16.60;;;0.00;99.90;;;-0.91;100.00;99447.66;5003027;28;22030;-44
2022/01/13 06:18:04;;;;;;;27.70;17.10;;;0.00;99.90;;;-0.89;100.00;99448.59;5008930;28;20512;-44
2022/01/13 06:20:30;;;;;;;29.45;17.27;;;0.00;99.90;;;-0.87;100.00;99449.53;5004764;28;20026;-44
2022/01/13 06:22:57;;;;;;;28.83;17.20;;;0.00;99.90;;;-0.94;100.00;99438.03;5011675;28;20029;-43
2022/01/13 06:25:24;;;;;;;28.38;17.08;;;0.00;99.90;;;-0.84;100.00;99444.50;5010809;28;20029;-44
2022/01/13 06:27:50;;;;;;;30.10;17.23;;;0.10;99.90;;;-0.86;100.00;99440.91;5013080;28;20042;-45
2022/01/13 06:30:16;;;;;;;26.73;17.00;;;0.10;99.90;;;-0.85;100.00;99434.94;5011962;28;20428;-43
2022/01/13 06:32:43;;;;;;;25.45;15.82;;;0.10;99.90;;;-0.83;100.00;99428.97;5009989;28;20026;-47
2022/01/13 06:35:11;;;;;;;28.92;16.77;;;0.00;99.90;;;-0.86;100.00;99428.88;5005887;28;20033;-46
2022/01/13 06:37:41;;;;;;;28.17;16.17;;;0.00;99.90;;;-1.01;100.00;99418.75;5014863;28;20519;-42
2022/01/13 06:40:08;;;;;;;27.20;16.75;;;0.00;99.90;;;-0.91;100.00;99438.16;5012644;28;20025;-48
2022/01/13 06:42:34;;;;;;;29.80;16.00;;;0.00;99.90;;;-0.96;100.00;99432.78;5012029;28;20479;-46
2022/01/13 06:45:00;;;;;;;28.40;16.30;;;0.00;99.90;;;-0.93;100.00;99444.09;5008936;28;20036;-46
2022/01/13 06:47:26;;;;;;;28.00;16.38;;;0.00;99.90;;;-0.90;100.00;99452.88;5012046;28;20065;-45
2022/01/13 06:49:54;;;;;;;27.80;16.67;;;0.00;99.90;;;-0.89;100.00;99449.47;5013845;28;20129;-46
2022/01/13 06:52:19;;;;;;;28.77;16.55;;;0.00;99.90;;;-0.89;100.00;99456.38;5012309;28;20128;-47
2022/01/13 06:54:45;;;;;;;26.40;16.23;;;0.00;99.90;;;-0.89;100.00;99457.25;5012430;28;20029;-46
2022/01/13 06:57:11;;;;;;;26.95;16.50;;;0.00;99.90;;;-0.85;100.00;99458.25;5013948;28;20041;-44
2022/01/13 06:59:36;;;;;;;28.67;17.63;;;0.10;99.90;;;-0.90;100.00;99452.88;5004042;28;20472;-45
2022/01/13 07:02:02;;;;;;;28.50;15.88;;;0.00;99.90;;;-0.90;100.00;99439.03;5011990;28;20479;-47
2022/01/13 07:04:29;;;;;;;28.10;16.10;;;0.10;99.90;;;-0.85;100.00;99459.13;5011411;28;20026;-48
2022/01/13 07:06:55;;;;;;;26.48;16.35;;;0.10;99.90;;;-0.79;100.00;99468.84;5012340;28;20025;-46
2022/01/13 07:09:21;;;;;;;26.60;16.13;;;0.10;99.90;;;-0.81;100.00;99483.47;5009484;28;20503;-47
2022/01/13 07:11:47;;;;;;;23.38;14.60;;;0.10;99.90;;;-0.87;100.00;99483.22;5010710;28;20479;-45
2022/01/13 07:14:15;;;;;;;26.65;15.55;;;0.00;99.90;;;-0.92;100.00;99480.41;5009705;28;20040;-46
2022/01/13 07:16:42;;;;;;;28.65;15.77;;;0.00;99.90;;;-0.88;100.00;99497.88;5008362;28;20121;-44
2022/01/13 07:19:12;;;;;;;27.95;16.17;;;0.00;99.90;;;-0.82;100.00;99497.25;4996503;28;20408;-46
2022/01/13 07:21:40;;;;;;;24.52;15.57;;;0.10;99.90;;;-0.86;100.00;99484.97;5014803;28;20057;-45
2022/01/13 07:24:06;;;;;;;27.45;16.52;;;0.10;99.90;;;-0.73;100.00;99507.13;5016365;28;20025;-46
2022/01/13 07:26:32;;;;;;;26.92;16.45;;;0.20;99.90;;;-0.75;100.00;99507.06;5012275;28;20028;-46
2022/01/13 07:28:58;;;;;;;25.83;16.10;;;0.20;99.90;;;-0.73;100.00;99508.00;5009412;28;20033;-48
2022/01/13 07:31:24;;;;;;;26.60;15.45;;;0.20;99.90;;;-0.75;100.00;99499.28;5011710;28;20037;-47
2022/01/13 07:33:49;;;;;;;29.13;16.17;;;0.20;99.90;;;-0.80;100.00;99495.59;5013540;28;20056;-45
2022/01/13 07:36:15;;;;;;;25.52;15.48;;;0.20;99.90;;;-0.69;100.00;99502.13;5014223;28;20156;-47
2022/01/13 07:38:43;;;;;;;27.20;16.08;;;0.20;99.90;;;-0.61;100.00;99505.91;5013600;28;20053;-46
2022/01/13 07:41:09;;;;;;;27.80;15.88;;;0.30;99.90;;;-0.67;100.00;99505.66;5016583;28;20037;-45
2022/01/13 07:43:35;;;;;;;26.58;15.93;;;0.30;99.90;;;-0.65;100.00;99497.94;5014365;28;20079;-48
2022/01/13 07:46:01;;;;;;;24.38;15.32;;;0.30;99.90;;;-0.55;100.00;99509.59;5009311;28;20033;-44
2022/01/13 07:48:27;;;;;;;27.27;15.18;;;0.30;99.90;;;-0.48;100.00;99509.03;5010920;28;20036;-46
2022/01/13 07:50:53;;;;;;;24.23;14.88;;;0.40;99.90;;;-0.44;100.00;99518.69;5011352;28;20052;-47
2022/01/13 07:53:19;;;;;;;24.20;15.13;;;0.40;99.90;;;-0.43;100.00;99515.25;5017099;28;20029;-45
2022/01/13 07:55:45;;;;;;;26.05;15.25;;;0.50;99.90;;;-0.37;100.00;99518.09;5008175;28;20087;-46
2022/01/13 07:58:11;;;;;;;25.38;15.35;;;0.50;99.90;;;-0.30;100.00;99516.66;5011684;28;20415;-47
2022/01/13 08:00:37;;;;;;;26.52;15.80;;;0.60;99.90;;;-0.31;100.00;99514.88;5009680;28;20044;-47
2022/01/13 08:03:03;;;;;;;25.58;15.50;;;0.60;99.90;;;-0.28;100.00;99512.41;5004845;28;20033;-47
2022/01/13 08:05:29;;;;;;;22.83;14.43;;;0.60;99.90;;;-0.22;100.00;99508.31;5013615;28;20129;-46
2022/01/13 08:07:55;;;;;;;25.70;14.45;;;0.70;99.90;;;-0.18;100.00;99513.66;5011655;28;20049;-49
2022/01/13 08:10:21;;;;;;;26.95;15.30;;;0.70;99.90;;;-0.17;100.00;99511.13;5016277;28;20037;-47
2022/01/13 08:12:46;;;;;;;26.65;15.15;;;0.70;99.90;;;-0.09;100.00;99517.50;5014434;28;20108;-45
2022/01/13 08:15:14;;;;;;;24.55;15.10;;;0.80;99.90;;;-0.09;100.00;99517.50;5015210;28;20537;-45
2022/01/13 08:20:31;;;;;;;25.45;15.13;;;0.80;99.90;;;-0.08;100.00;99513.19;5014066;28;20526;-46
2022/01/13 08:22:57;;;;;;;22.77;14.13;;;0.80;99.90;;;-0.03;100.00;99517.72;5016487;28;20029;-43
2022/01/13 08:25:24;;;;;;;18.30;11.10;;;0.90;99.90;;;0.03;100.00;99518.81;5014172;28;20421;-41
2022/01/13 08:27:50;;;;;;;18.63;11.45;;;0.90;99.90;;;0.01;100.00;99518.75;5014003;28;20032;-47
2022/01/13 08:30:16;;;;;;;17.52;11.07;;;1.00;99.90;;;0.08;100.00;99522.47;5012968;28;20036;-46
2022/01/13 08:32:42;;;;;;;21.90;12.27;;;1.00;99.90;;;0.07;100.00;99525.88;5010824;28;20034;-47
2022/01/13 08:35:10;;;;;;;17.63;11.00;;;1.00;99.90;;;0.10;100.00;99521.69;5012083;28;20906;-47
2022/01/13 08:37:35;;;;;;;20.08;11.90;;;1.00;99.90;;;0.27;100.00;99524.94;5010856;28;20519;-46
2022/01/13 08:40:06;;;;;;;21.58;10.57;;;1.10;99.90;;;0.27;100.00;99517.16;5011249;28;20112;-46
2022/01/13 08:42:35;;;;;;;17.33;11.05;;;1.10;99.90;;;0.30;100.00;99518.97;5004682;28;20423;-46
2022/01/13 08:45:07;;;;;;;17.92;10.63;;;1.20;99.90;;;0.36;100.00;99520.09;5009185;28;20325;-46
2022/01/13 08:47:32;;;;;;;15.57;9.60;;;1.20;99.90;;;0.34;100.00;99511.38;5006363;28;20032;-46
2022/01/13 08:49:58;;;;;;;17.55;9.27;;;1.20;99.90;;;0.26;100.00;99515.38;5015113;28;20037;-45
2022/01/13 08:52:24;;;;;;;13.82;9.20;;;1.20;99.90;;;0.11;100.00;99517.41;5014071;28;20075;-44
2022/01/13 08:54:55;;;;;;;15.25;9.20;;;1.10;99.90;;;0.10;100.00;99519.09;5008628;28;20731;-46
2022/01/13 08:57:21;;;;;;;14.60;9.35;;;1.00;99.90;;;0.04;100.00;99521.47;5010367;28;20060;-46
2022/01/13 08:59:47;;;;;;;15.98;9.02;;;0.90;99.90;;;-0.08;100.00;99515.78;5014010;28;20028;-45
2022/01/13 09:02:13;;;;;;;18.10;10.10;;;0.80;99.90;;;-0.14;100.00;99513.84;5011888;28;20041;-45
2022/01/13 09:04:40;;;;;;;17.25;9.70;;;0.70;99.90;;;-0.26;100.00;99510.75;5004201;28;20629;-47
2022/01/13 09:07:06;;;;;;;18.02;9.52;;;0.70;99.90;;;-0.36;100.00;99508.59;5003972;28;20045;-45
2022/01/13 09:09:31;;;;;;;15.80;10.02;;;0.60;99.90;;;-0.45;100.00;99514.31;5010400;28;20038;-43
2022/01/13 09:11:57;;;;;;;13.57;9.57;;;0.50;99.90;;;-0.44;100.00;99513.50;5011873;28;20124;-45
2022/01/13 09:14:26;;;;;;;16.58;9.93;;;0.50;99.90;;;-0.51;100.00;99504.56;5003016;28;20026;-47
2022/01/13 09:16:57;;;;;;;15.98;9.43;;;0.40;99.90;;;-0.63;100.00;99510.16;5001969;28;20095;-40
2022/01/13 09:19:23;;;;;;;17.35;9.98;;;0.40;99.90;;;-0.67;100.00;99497.88;5009935;28;20499;-44
2022/01/13 09:21:49;;;;;;;19.75;10.45;;;0.30;99.90;;;-0.70;100.00;99491.69;5005826;28;20060;-47
2022/01/13 09:24:18;;;;;;;21.95;10.77;;;0.30;99.90;;;-0.68;100.00;99490.94;5008269;28;20036;-45
2022/01/13 09:26:45;;;;;;;22.75;12.27;;;0.30;99.90;;;-0.75;100.00;99485.41;5006306;28;20037;-45
2022/01/13 09:29:12;;;;;;;19.42;11.30;;;0.30;99.90;;;-0.59;100.00;99485.25;4998852;28;20309;-44
2022/01/13 09:31:40;;;;;;;20.75;12.50;;;0.30;99.90;;;-0.55;100.00;99494.03;4998099;28;20032;-47
2022/01/13 09:34:07;;;;;;;21.40;11.98;;;0.40;99.90;;;-0.47;100.00;99501.28;5008654;28;20092;-46
2022/01/13 09:36:34;;;;;;;20.35;11.38;;;0.40;99.90;;;-0.52;100.00;99494.13;5003884;28;20073;-48
2022/01/13 09:39:03;;;;;;;20.80;11.55;;;0.40;99.90;;;-0.65;100.00;99459.94;5008795;28;20018;-47
2022/01/13 09:41:31;;;;;;;21.77;12.77;;;0.50;99.90;;;-0.55;100.00;99491.44;5012207;28;20033;-45
2022/01/13 09:44:02;;;;;;;19.73;11.98;;;0.40;99.90;;;-0.56;100.00;99489.66;5008317;28;20028;-47
2022/01/13 09:46:28;;;;;;;18.88;11.75;;;0.40;99.90;;;-0.54;100.00;99488.00;5004563;28;20036;-44
2022/01/13 09:48:55;;;;;;;20.35;11.80;;;0.40;99.90;;;-0.49;100.00;99489.97;5010543;28;20130;-46
2022/01/13 09:51:25;;;;;;;20.77;12.27;;;0.50;99.90;;;-0.46;100.00;99492.69;5007174;28;20033;-47
2022/01/13 09:53:52;;;;;;;24.85;12.75;;;0.50;99.90;;;-0.39;100.00;99489.53;5009552;28;20053;-45
2022/01/13 09:56:17;;;;;;;24.48;12.73;;;0.50;99.90;;;-0.36;100.00;99485.28;5009998;28;20033;-42
2022/01/13 09:58:44;;;;;;;24.85;14.77;;;0.60;99.90;;;-0.31;100.00;99491.53;5011109;28;20029;-45
2022/01/13 10:01:11;;;;;;;20.95;13.05;;;0.60;99.90;;;-0.37;100.00;99487.00;4992289;28;20062;-45
2022/01/13 10:03:37;;;;;;;27.70;14.48;;;0.60;99.90;;;-0.28;100.00;99492.53;5007798;28;20117;-45
2022/01/13 10:06:11;;;;;;;24.00;14.05;;;0.70;99.90;;;-0.24;100.00;99498.72;5011244;28;20167;-45
2022/01/13 10:08:53;;;;;;;25.17;14.48;;;0.70;99.90;;;-0.18;100.00;99495.50;5008581;28;20025;-45
2022/01/13 10:11:33;;;;;;;21.83;14.02;;;0.80;99.90;;;-0.34;100.00;99468.06;5010627;28;20030;-45
2022/01/13 10:16:23;;;;;;;24.02;14.50;;;0.70;99.90;;;-0.15;99.52;99486.13;5008962;28;20056;-46
2022/01/13 10:17:10;;;;;;;27.25;14.52;;;0.80;99.90;;;-0.14;99.94;99481.81;5009088;28;20041;-47
2022/01/13 10:19:42;;;;;;;24.40;14.40;;;0.80;99.90;;;-0.11;99.52;99485.41;5011811;28;20037;-47
2022/01/13 10:22:23;;;;;;;28.05;15.10;;;0.80;99.90;;;-0.08;99.95;99479.47;5011000;28;20030;-47
2022/01/13 10:24:53;;;;;;;24.40;13.60;;;0.80;99.90;;;-0.03;99.80;99480.53;5012666;28;20025;-46
2022/01/13 10:27:22;;;;;;;24.35;14.25;;;0.90;99.90;;;-0.04;99.43;99482.22;5011633;28;20042;-44
2022/01/13 10:30:00;;;;;;;29.98;15.25;;;0.90;99.90;;;-0.02;99.16;99485.78;5009655;28;20164;-46
2022/01/13 10:32:38;;;;;;;21.00;13.55;;;0.90;99.90;;;0.04;99.07;99474.75;5010680;28;20029;-47
2022/01/13 10:35:11;;;;;;;22.65;14.55;;;0.90;99.90;;;0.09;98.80;99477.50;5007213;28;20029;-48
2022/01/13 10:37:38;;;;;;;;;;;1.00;99.90;;;0.09;98.63;99481.00;5010937;28;20033;-48